createdAt,value
2018-04-14T00:00:46.405Z,11.00
2018-04-14T00:01:46.409Z,11.00
2018-04-14T00:02:46.409Z,11.00
2018-04-14T00:03:46.404Z,11.00
2018-04-14T00:04:46.414Z,12.10
2018-04-14T00:05:46.408Z,11.70
2018-04-14T00:06:46.403Z,12.00
2018-04-14T00:07:46.400Z,12.50
2018-04-14T00:08:46.396Z,11.50
2018-04-14T00:09:46.394Z,12.00
2018-04-14T00:10:46.397Z,11.80
2018-04-14T00:11:46.396Z,12.80
2018-04-14T00:12:46.388Z,13.00
2018-04-14T00:13:46.390Z,14.00
2018-04-14T00:14:46.388Z,15.80
2018-04-14T00:15:46.388Z,16.40
2018-04-14T00:16:46.392Z,17.10
2018-04-14T00:17:46.389Z,17.50
2018-04-14T00:18:46.387Z,18.30
2018-04-14T00:19:46.382Z,19.00
2018-04-14T00:20:46.381Z,19.40
2018-04-14T00:21:46.383Z,19.70
2018-04-14T00:22:46.376Z,19.40
2018-04-14T00:23:46.377Z,19.40
2018-04-14T00:24:46.373Z,19.90
2018-04-14T00:25:46.372Z,20.10
2018-04-14T00:26:46.371Z,18.50
2018-04-14T00:27:46.368Z,20.10
2018-04-14T00:28:46.366Z,19.30
2018-04-14T00:29:46.367Z,17.30
2018-04-14T00:30:46.365Z,17.90
2018-04-14T00:31:46.365Z,18.00
2018-04-14T00:32:46.360Z,19.60
2018-04-14T00:33:46.360Z,16.60
2018-04-14T00:34:46.354Z,16.60
2018-04-14T00:35:46.356Z,19.00
2018-04-14T00:36:46.355Z,18.90
2018-04-14T00:37:46.351Z,16.50
2018-04-14T00:38:46.349Z,18.70
2018-04-14T00:39:46.351Z,16.10
2018-04-14T00:40:46.350Z,17.10
2018-04-14T00:41:46.347Z,18.50
2018-04-14T00:42:46.344Z,17.90
2018-04-14T00:43:46.343Z,16.80
2018-04-14T00:44:46.344Z,14.60
2018-04-14T00:45:46.342Z,14.00
2018-04-14T00:46:46.335Z,14.40
2018-04-14T00:47:46.336Z,14.90
2018-04-14T00:48:46.365Z,14.40
2018-04-14T00:49:46.335Z,16.00
2018-04-14T00:50:46.333Z,16.00
2018-04-14T00:51:46.336Z,16.40
2018-04-14T00:52:46.332Z,16.60
2018-04-14T00:53:46.328Z,16.60
2018-04-14T00:54:46.330Z,17.10
2018-04-14T00:55:46.322Z,18.10
2018-04-14T00:56:46.324Z,18.50
2018-04-14T00:57:46.321Z,18.50
2018-04-14T00:58:46.322Z,19.70
2018-04-14T00:59:46.317Z,18.60
2018-04-14T01:00:46.317Z,19.50
2018-04-14T01:01:46.317Z,18.90
2018-04-14T01:02:46.315Z,20.60
2018-04-14T01:03:46.316Z,21.20
2018-04-14T01:04:46.313Z,20.30
2018-04-14T01:05:46.317Z,21.50
2018-04-14T01:06:46.314Z,22.40
2018-04-14T01:07:46.308Z,23.20
2018-04-14T01:08:46.305Z,24.90
2018-04-14T01:09:46.305Z,20.90
2018-04-14T01:10:46.303Z,23.30
2018-04-14T01:11:46.300Z,21.80
2018-04-14T01:12:46.302Z,22.30
2018-04-14T01:13:46.300Z,24.40
2018-04-14T01:14:46.299Z,23.00
2018-04-14T01:15:46.298Z,22.70
2018-04-14T01:16:46.295Z,23.60
2018-04-14T01:17:46.293Z,25.00
2018-04-14T01:18:46.305Z,26.00
2018-04-14T01:19:46.302Z,28.50
2018-04-14T01:20:46.289Z,26.60
2018-04-14T01:21:46.288Z,26.60
2018-04-14T01:22:46.349Z,27.50
2018-04-14T01:23:46.282Z,27.40
2018-04-14T01:24:46.282Z,29.70
2018-04-14T01:25:46.283Z,29.60
2018-04-14T01:26:46.286Z,31.80
2018-04-14T01:27:46.276Z,30.60
2018-04-14T01:28:46.278Z,29.30
2018-04-14T01:29:46.277Z,31.50
2018-04-14T01:30:46.276Z,30.20
2018-04-14T01:31:46.277Z,30.50
2018-04-14T01:32:46.272Z,28.70
2018-04-14T01:33:46.271Z,31.20
2018-04-14T01:34:46.273Z,31.10
2018-04-14T01:35:46.270Z,30.50
2018-04-14T01:36:46.264Z,36.10
2018-04-14T01:37:46.264Z,34.30
2018-04-14T01:38:46.263Z,34.10
2018-04-14T01:39:46.263Z,36.70
2018-04-14T01:40:46.258Z,36.70
2018-04-14T01:41:46.260Z,37.80
2018-04-14T01:42:46.256Z,35.20
2018-04-14T01:43:46.256Z,36.50
2018-04-14T01:44:46.256Z,36.80
2018-04-14T01:45:46.252Z,38.40
2018-04-14T01:46:46.250Z,37.40
2018-04-14T01:47:46.250Z,38.10
2018-04-14T01:48:46.242Z,41.30
2018-04-14T01:49:46.244Z,37.90
2018-04-14T01:50:46.243Z,39.20
2018-04-14T01:51:46.245Z,41.50
2018-04-14T01:52:46.234Z,45.30
2018-04-14T01:53:46.238Z,46.90
2018-04-14T01:54:46.238Z,47.60
2018-04-14T01:55:46.238Z,43.30
2018-04-14T01:56:46.240Z,44.40
2018-04-14T01:57:46.234Z,43.30
2018-04-14T01:58:46.231Z,51.90
2018-04-14T01:59:46.228Z,59.00
2018-04-14T02:00:46.228Z,64.30
2018-04-14T02:01:46.225Z,59.20
2018-04-14T02:02:46.225Z,52.80
2018-04-14T02:03:46.226Z,42.60
2018-04-14T02:04:46.225Z,42.50
2018-04-14T02:05:46.220Z,42.90
2018-04-14T02:06:46.218Z,40.50
2018-04-14T02:07:46.218Z,41.10
2018-04-14T02:08:46.218Z,38.70
2018-04-14T02:09:46.213Z,39.70
2018-04-14T02:10:46.211Z,42.20
2018-04-14T02:11:46.209Z,41.30
2018-04-14T02:12:46.211Z,39.30
2018-04-14T02:13:46.202Z,45.40
2018-04-14T02:14:46.203Z,41.10
2018-04-14T02:15:46.204Z,41.00
2018-04-14T02:16:46.200Z,40.10
2018-04-14T02:17:46.203Z,39.10
2018-04-14T02:18:46.197Z,42.70
2018-04-14T02:19:46.196Z,38.60
2018-04-14T02:20:46.200Z,39.10
2018-04-14T02:21:46.193Z,38.00
2018-04-14T02:22:46.190Z,42.30
2018-04-14T02:23:46.190Z,42.80
2018-04-14T02:24:46.187Z,37.90
2018-04-14T02:25:46.180Z,42.40
2018-04-14T02:26:46.184Z,41.20
2018-04-14T02:27:46.184Z,46.30
2018-04-14T02:28:46.180Z,40.30
2018-04-14T02:29:46.177Z,43.30
2018-04-14T02:30:46.184Z,51.80
2018-04-14T02:31:46.174Z,57.10
2018-04-14T02:32:46.172Z,45.10
2018-04-14T02:33:46.173Z,43.20
2018-04-14T02:34:46.169Z,39.90
2018-04-14T02:35:46.167Z,42.30
2018-04-14T02:36:46.171Z,44.20
2018-04-14T02:37:46.156Z,47.30
2018-04-14T02:38:46.163Z,50.80
2018-04-14T02:39:46.161Z,46.40
2018-04-14T02:40:46.157Z,44.20
2018-04-14T02:41:46.156Z,45.10
2018-04-14T02:42:46.158Z,47.60
2018-04-14T02:43:46.155Z,40.90
2018-04-14T02:44:46.154Z,52.40
2018-04-14T02:45:46.146Z,45.70
2018-04-14T02:46:46.147Z,46.50
2018-04-14T02:47:46.146Z,42.60
2018-04-14T02:48:46.143Z,42.20
2018-04-14T02:49:46.139Z,43.00
2018-04-14T02:50:46.138Z,46.90
2018-04-14T02:51:46.141Z,45.80
2018-04-14T02:52:46.134Z,45.90
2018-04-14T02:53:46.136Z,46.50
2018-04-14T02:54:46.128Z,44.90
2018-04-14T02:55:46.133Z,49.10
2018-04-14T02:56:46.131Z,49.70
2018-04-14T02:57:46.125Z,49.10
2018-04-14T02:58:46.125Z,48.20
2018-04-14T02:59:46.121Z,50.50
2018-04-14T03:00:46.124Z,53.10
2018-04-14T03:01:46.115Z,59.60
2018-04-14T03:02:46.116Z,47.70
2018-04-14T03:03:46.117Z,53.80
2018-04-14T03:04:46.111Z,42.80
2018-04-14T03:05:46.111Z,49.20
2018-04-14T03:06:46.112Z,46.30
2018-04-14T03:07:46.109Z,43.40
2018-04-14T03:08:46.115Z,38.20
2018-04-14T03:09:46.104Z,37.60
2018-04-14T03:10:46.100Z,37.40
2018-04-14T03:11:46.100Z,38.80
2018-04-14T03:12:46.104Z,40.40
2018-04-14T03:13:46.095Z,45.80
2018-04-14T03:14:46.093Z,43.30
2018-04-14T03:15:46.094Z,40.90
2018-04-14T03:16:46.090Z,41.30
2018-04-14T03:17:46.087Z,40.60
2018-04-14T03:18:46.085Z,43.40
2018-04-14T03:19:46.084Z,41.90
2018-04-14T03:20:46.080Z,46.80
2018-04-14T03:21:46.084Z,45.00
2018-04-14T03:22:46.078Z,51.50
2018-04-14T03:23:46.081Z,49.10
2018-04-14T03:24:46.075Z,47.60
2018-04-14T03:25:46.070Z,58.50
2018-04-14T03:26:46.071Z,47.90
2018-04-14T03:27:46.075Z,47.10
2018-04-14T03:28:46.061Z,45.30
2018-04-14T03:29:46.065Z,49.60
2018-04-14T03:30:46.063Z,48.00
2018-04-14T03:31:46.061Z,49.10
2018-04-14T03:32:46.058Z,50.10
2018-04-14T03:33:46.057Z,55.70
2018-04-14T03:34:46.056Z,59.90
2018-04-14T03:35:46.052Z,58.20
2018-04-14T03:36:46.052Z,63.30
2018-04-14T03:37:46.047Z,70.10
2018-04-14T03:38:46.046Z,82.30
2018-04-14T03:39:46.049Z,76.20
2018-04-14T03:40:46.043Z,71.70
2018-04-14T03:41:46.041Z,65.70
2018-04-14T03:42:46.040Z,66.10
2018-04-14T03:43:46.038Z,66.10
2018-04-14T03:44:46.035Z,69.60
2018-04-14T03:45:46.033Z,70.10
2018-04-14T03:46:46.032Z,73.30
2018-04-14T03:47:46.030Z,70.20
2018-04-14T03:48:46.025Z,60.30
2018-04-14T03:49:46.024Z,56.40
2018-04-14T03:50:46.025Z,58.80
2018-04-14T03:51:46.020Z,67.40
2018-04-14T03:52:46.016Z,64.50
2018-04-14T03:53:46.017Z,80.50
2018-04-14T03:54:46.014Z,77.70
2018-04-14T03:55:46.015Z,65.20
2018-04-14T03:56:46.017Z,66.70
2018-04-14T03:57:46.010Z,61.00
2018-04-14T03:58:46.007Z,65.80
2018-04-14T03:59:46.007Z,61.30
2018-04-14T04:00:46.001Z,56.40
2018-04-14T04:01:46.004Z,49.20
2018-04-14T04:02:46.000Z,49.90
2018-04-14T04:03:46.012Z,51.10
2018-04-14T04:04:45.992Z,43.80
2018-04-14T04:05:45.998Z,45.40
2018-04-14T04:06:45.992Z,44.10
2018-04-14T04:07:45.991Z,43.20
2018-04-14T04:08:45.993Z,44.40
2018-04-14T04:09:45.985Z,51.10
2018-04-14T04:10:45.984Z,45.00
2018-04-14T04:11:45.990Z,45.60
2018-04-14T04:12:45.980Z,35.30
2018-04-14T04:13:45.979Z,34.20
2018-04-14T04:14:45.977Z,31.00
2018-04-14T04:15:45.977Z,31.70
2018-04-14T04:16:45.971Z,31.20
2018-04-14T04:17:45.974Z,34.90
2018-04-14T04:18:45.974Z,32.40
2018-04-14T04:19:45.965Z,34.20
2018-04-14T04:20:45.964Z,32.60
2018-04-14T04:21:45.962Z,34.40
2018-04-14T04:22:45.960Z,35.90
2018-04-14T04:23:45.956Z,39.30
2018-04-14T04:24:45.953Z,40.30
2018-04-14T04:25:45.952Z,43.10
2018-04-14T04:26:45.953Z,38.20
2018-04-14T04:27:45.954Z,43.20
2018-04-14T04:28:45.946Z,41.20
2018-04-14T04:29:45.948Z,42.60
2018-04-14T04:30:45.943Z,42.70
2018-04-14T04:31:45.938Z,50.60
2018-04-14T04:32:45.939Z,49.60
2018-04-14T04:33:45.935Z,45.60
2018-04-14T04:34:45.936Z,48.20
2018-04-14T04:35:45.934Z,46.00
2018-04-14T04:36:45.929Z,49.10
2018-04-14T04:37:45.927Z,50.50
2018-04-14T04:38:45.932Z,48.70
2018-04-14T04:39:45.924Z,45.30
2018-04-14T04:40:45.921Z,47.40
2018-04-14T04:41:45.920Z,42.90
2018-04-14T04:42:45.924Z,43.80
2018-04-14T04:43:45.914Z,45.60
2018-04-14T04:44:45.914Z,43.10
2018-04-14T04:45:45.909Z,46.20
2018-04-14T04:46:45.907Z,43.90
2018-04-14T04:47:45.906Z,49.10
2018-04-14T04:48:45.981Z,49.30
2018-04-14T04:49:45.903Z,42.90
2018-04-14T04:50:45.905Z,48.90
2018-04-14T04:51:45.899Z,52.90
2018-04-14T04:52:45.894Z,53.50
2018-04-14T04:53:45.893Z,56.90
2018-04-14T04:54:45.889Z,60.50
2018-04-14T04:55:45.884Z,47.10
2018-04-14T04:56:45.887Z,42.80
2018-04-14T04:57:45.915Z,43.10
2018-04-14T04:58:45.877Z,44.50
2018-04-14T04:59:45.879Z,41.30
2018-04-14T05:00:45.876Z,41.30
2018-04-14T05:01:45.873Z,44.90
2018-04-14T05:02:45.872Z,44.00
2018-04-14T05:03:45.867Z,51.30
2018-04-14T05:04:45.863Z,46.70
2018-04-14T05:05:45.867Z,49.30
2018-04-14T05:06:45.863Z,48.90
2018-04-14T05:07:45.858Z,44.20
2018-04-14T05:08:45.854Z,48.00
2018-04-14T05:09:45.852Z,49.70
2018-04-14T05:10:45.850Z,56.20
2018-04-14T05:11:45.855Z,51.90
2018-04-14T05:12:45.839Z,43.30
2018-04-14T05:13:45.841Z,50.20
2018-04-14T05:14:45.841Z,49.60
2018-04-14T05:15:45.838Z,49.10
2018-04-14T05:16:45.832Z,57.10
2018-04-14T05:17:45.836Z,54.00
2018-04-14T05:18:45.838Z,52.20
2018-04-14T05:19:45.828Z,51.10
2018-04-14T05:20:45.825Z,47.90
2018-04-14T05:21:45.823Z,51.50
2018-04-14T05:22:45.821Z,49.90
2018-04-14T05:23:45.822Z,55.80
2018-04-14T05:24:45.815Z,52.00
2018-04-14T05:25:45.812Z,58.30
2018-04-14T05:26:45.811Z,55.90
2018-04-14T05:27:45.807Z,59.80
2018-04-14T05:28:45.806Z,59.90
2018-04-14T05:29:45.802Z,63.10
2018-04-14T05:30:45.800Z,70.80
2018-04-14T05:31:45.799Z,79.00
2018-04-14T05:32:45.794Z,77.30
2018-04-14T05:33:45.794Z,80.10
2018-04-14T05:34:45.805Z,77.70
2018-04-14T05:35:45.787Z,80.00
2018-04-14T05:36:45.784Z,83.60
2018-04-14T05:37:45.782Z,67.60
2018-04-14T05:38:45.781Z,72.90
2018-04-14T05:39:45.777Z,77.30
2018-04-14T05:40:45.775Z,91.30
2018-04-14T05:41:45.773Z,87.10
2018-04-14T05:42:45.821Z,74.10
2018-04-14T05:43:45.769Z,77.20
2018-04-14T05:44:45.765Z,77.30
2018-04-14T05:45:45.761Z,78.30
2018-04-14T05:46:45.761Z,76.10
2018-04-14T05:47:45.758Z,74.80
2018-04-14T05:48:45.754Z,73.50
2018-04-14T05:49:45.754Z,79.60
2018-04-14T05:50:45.752Z,86.70
2018-04-14T05:51:45.744Z,84.00
2018-04-14T05:52:45.743Z,81.80
2018-04-14T05:53:45.744Z,87.90
2018-04-14T05:54:45.739Z,84.60
2018-04-14T05:55:45.740Z,85.00
2018-04-14T05:56:45.736Z,94.60
2018-04-14T05:57:45.731Z,83.70
2018-04-14T05:58:45.732Z,99.30
2018-04-14T05:59:45.729Z,93.00
2018-04-14T06:00:45.732Z,93.10
2018-04-14T06:01:45.724Z,82.60
2018-04-14T06:02:45.724Z,103.60
2018-04-14T06:03:45.720Z,99.40
2018-04-14T06:04:45.728Z,92.80
2018-04-14T06:05:45.718Z,91.10
2018-04-14T06:06:45.713Z,89.20
2018-04-14T06:07:45.712Z,80.30
2018-04-14T06:08:45.710Z,82.90
2018-04-14T06:09:45.705Z,90.50
2018-04-14T06:10:45.706Z,84.80
2018-04-14T06:11:45.705Z,83.70
2018-04-14T06:12:45.696Z,75.60
2018-04-14T06:13:45.700Z,81.50
2018-04-14T06:14:45.696Z,71.90
2018-04-14T06:15:45.693Z,74.10
2018-04-14T06:16:45.686Z,69.90
2018-04-14T06:17:45.688Z,72.40
2018-04-14T06:18:45.687Z,70.30
2018-04-14T06:19:45.687Z,70.40
2018-04-14T06:20:45.682Z,70.30
2018-04-14T06:21:45.680Z,65.60
2018-04-14T06:22:45.677Z,79.20
2018-04-14T06:23:45.676Z,76.00
2018-04-14T06:24:45.673Z,77.80
2018-04-14T06:25:45.676Z,72.60
2018-04-14T06:26:45.671Z,75.40
2018-04-14T06:27:45.674Z,74.80
2018-04-14T06:28:45.663Z,78.70
2018-04-14T06:29:45.660Z,86.40
2018-04-14T06:30:45.668Z,76.90
2018-04-14T06:31:45.660Z,73.40
2018-04-14T06:32:45.656Z,72.10
2018-04-14T06:33:45.693Z,68.40
2018-04-14T06:34:45.650Z,65.30
2018-04-14T06:35:45.655Z,63.10
2018-04-14T06:36:45.647Z,69.70
2018-04-14T06:37:45.643Z,66.20
2018-04-14T06:38:45.645Z,67.60
2018-04-14T06:39:45.637Z,64.20
2018-04-14T06:40:45.636Z,64.90
2018-04-14T06:41:45.636Z,69.90
2018-04-14T06:42:45.639Z,71.70
2018-04-14T06:43:45.630Z,80.20
2018-04-14T06:44:45.629Z,79.10
2018-04-14T06:45:45.627Z,83.00
2018-04-14T06:46:45.626Z,83.50
2018-04-14T06:47:45.625Z,74.80
2018-04-14T06:48:45.622Z,78.50
2018-04-14T06:49:45.617Z,79.20
2018-04-14T06:50:45.616Z,75.90
2018-04-14T06:51:45.614Z,84.70
2018-04-14T06:52:45.610Z,82.70
2018-04-14T06:53:45.613Z,80.80
2018-04-14T06:54:45.608Z,94.70
2018-04-14T06:55:45.603Z,83.30
2018-04-14T06:56:45.604Z,102.40
2018-04-14T06:57:45.600Z,82.00
2018-04-14T06:58:45.599Z,82.90
2018-04-14T06:59:45.600Z,89.30
2018-04-14T07:00:45.597Z,89.80
2018-04-14T07:01:45.592Z,95.50
2018-04-14T07:02:45.597Z,93.80
2018-04-14T07:03:45.589Z,91.10
2018-04-14T07:04:45.588Z,87.30
2018-04-14T07:05:45.587Z,88.40
2018-04-14T07:06:45.586Z,86.90
2018-04-14T07:07:45.582Z,95.20
2018-04-14T07:08:45.580Z,105.40
2018-04-14T07:09:45.579Z,98.40
2018-04-14T07:10:45.574Z,93.50
2018-04-14T07:11:45.573Z,97.50
2018-04-14T07:12:45.572Z,109.80
2018-04-14T07:13:45.573Z,99.40
2018-04-14T07:14:45.573Z,86.70
2018-04-14T07:15:45.571Z,89.60
2018-04-14T07:16:45.565Z,85.90
2018-04-14T07:17:45.566Z,75.20
2018-04-14T07:18:45.568Z,76.00
2018-04-14T07:19:45.563Z,79.00
2018-04-14T07:20:45.638Z,76.20
2018-04-14T07:21:45.560Z,71.70
2018-04-14T07:22:45.561Z,76.80
2018-04-14T07:23:45.557Z,70.90
2018-04-14T07:24:45.554Z,77.80
2018-04-14T07:25:45.556Z,75.60
2018-04-14T07:26:45.612Z,65.90
2018-04-14T07:27:45.557Z,64.00
2018-04-14T07:28:45.551Z,71.70
2018-04-14T07:29:45.555Z,68.40
2018-04-14T07:30:45.550Z,70.60
2018-04-14T07:31:45.548Z,71.70
2018-04-14T07:32:45.549Z,79.30
2018-04-14T07:33:45.547Z,64.90
2018-04-14T07:34:45.547Z,70.70
2018-04-14T07:35:45.545Z,75.50
2018-04-14T07:36:45.555Z,71.90
2018-04-14T07:37:45.554Z,73.20
2018-04-14T07:38:45.546Z,70.20
2018-04-14T07:39:45.546Z,73.90
2018-04-14T07:40:45.547Z,71.30
2018-04-14T07:41:45.540Z,73.20
2018-04-14T07:42:45.543Z,70.50
2018-04-14T07:43:45.544Z,70.90
2018-04-14T07:44:45.543Z,68.70
2018-04-14T07:45:45.542Z,69.40
2018-04-14T07:46:45.545Z,71.60
2018-04-14T07:47:45.542Z,71.10
2018-04-14T07:48:45.541Z,70.80
2018-04-14T07:49:45.543Z,69.00
2018-04-14T07:50:45.541Z,76.00
2018-04-14T07:51:45.541Z,72.00
2018-04-14T07:52:45.543Z,71.50
2018-04-14T07:53:45.545Z,68.50
2018-04-14T07:54:45.541Z,73.50
2018-04-14T07:55:45.540Z,73.70
2018-04-14T07:56:45.538Z,76.20
2018-04-14T07:57:45.561Z,79.70
2018-04-14T07:58:45.541Z,80.10
2018-04-14T07:59:45.539Z,72.80
2018-04-14T08:00:45.538Z,71.80
2018-04-14T08:01:45.540Z,78.50
2018-04-14T08:02:45.538Z,75.00
2018-04-14T08:03:45.537Z,71.50
2018-04-14T08:04:45.537Z,76.40
2018-04-14T08:05:45.537Z,73.60
2018-04-14T08:06:45.538Z,68.30
2018-04-14T08:07:45.536Z,71.60
2018-04-14T08:08:45.536Z,72.30
2018-04-14T08:09:45.536Z,66.60
2018-04-14T08:10:45.530Z,72.90
2018-04-14T08:11:45.534Z,72.50
2018-04-14T08:12:45.537Z,67.50
2018-04-14T08:13:45.535Z,68.90
2018-04-14T08:14:45.538Z,72.70
2018-04-14T08:15:45.537Z,70.90
2018-04-14T08:16:45.542Z,75.80
2018-04-14T08:17:45.536Z,69.90
2018-04-14T08:18:45.536Z,72.80
2018-04-14T08:19:45.535Z,70.40
2018-04-14T08:20:45.541Z,74.00
2018-04-14T08:21:45.537Z,71.60
2018-04-14T08:22:45.536Z,68.80
2018-04-14T08:23:45.537Z,64.10
2018-04-14T08:24:45.551Z,66.40
2018-04-14T08:25:45.544Z,63.60
2018-04-14T08:26:45.534Z,68.70
2018-04-14T08:27:45.536Z,65.90
2018-04-14T08:28:45.540Z,66.40
2018-04-14T08:29:45.537Z,71.90
2018-04-14T08:30:45.538Z,65.00
2018-04-14T08:31:45.543Z,62.90
2018-04-14T08:32:45.536Z,59.40
2018-04-14T08:33:45.569Z,63.50
2018-04-14T08:34:45.541Z,64.20
2018-04-14T08:35:45.544Z,61.80
2018-04-14T08:36:46.192Z,62.80
2018-04-14T08:37:45.544Z,62.40
2018-04-14T08:38:45.542Z,63.90
2018-04-14T08:39:45.544Z,61.30
2018-04-14T08:40:45.539Z,67.80
2018-04-14T08:41:45.543Z,64.70
2018-04-14T08:42:45.544Z,61.70
2018-04-14T08:43:45.541Z,64.00
2018-04-14T08:44:45.541Z,61.00
2018-04-14T08:45:45.547Z,59.00
2018-04-14T08:46:45.548Z,60.50
2018-04-14T08:47:45.547Z,59.40
2018-04-14T08:48:45.594Z,58.60
2018-04-14T08:49:45.546Z,61.40
2018-04-14T08:50:45.547Z,60.40
2018-04-14T08:51:45.548Z,61.30
2018-04-14T08:52:45.551Z,61.40
2018-04-14T08:53:45.548Z,61.50
2018-04-14T08:54:45.556Z,65.50
2018-04-14T08:55:45.551Z,62.10
2018-04-14T08:56:45.551Z,60.60
2018-04-14T08:57:45.549Z,57.70
2018-04-14T08:58:45.557Z,57.50
2018-04-14T08:59:45.548Z,51.60
2018-04-14T09:00:45.555Z,52.90
2018-04-14T09:01:45.551Z,55.00
2018-04-14T09:02:45.553Z,53.10
2018-04-14T09:03:45.553Z,56.40
2018-04-14T09:04:45.556Z,59.80
2018-04-14T09:05:45.551Z,59.20
2018-04-14T09:06:45.553Z,59.00
2018-04-14T09:07:45.554Z,59.10
2018-04-14T09:08:45.553Z,60.40
2018-04-14T09:09:45.560Z,59.30
2018-04-14T09:10:45.557Z,65.30
2018-04-14T09:11:45.555Z,66.30
2018-04-14T09:12:45.554Z,62.30
2018-04-14T09:13:45.555Z,65.80
2018-04-14T09:14:45.559Z,65.70
2018-04-14T09:15:45.554Z,65.00
2018-04-14T09:16:45.556Z,64.90
2018-04-14T09:17:45.561Z,67.20
2018-04-14T09:18:45.559Z,69.60
2018-04-14T09:19:45.557Z,67.50
2018-04-14T09:20:45.558Z,64.80
2018-04-14T09:21:45.560Z,66.90
2018-04-14T09:22:45.557Z,62.10
2018-04-14T09:23:45.557Z,61.90
2018-04-14T09:24:45.561Z,62.80
2018-04-14T09:25:45.559Z,66.30
2018-04-14T09:26:45.617Z,62.90
2018-04-14T09:27:45.561Z,64.30
2018-04-14T09:28:45.565Z,64.20
2018-04-14T09:29:45.563Z,64.30
2018-04-14T09:30:45.565Z,64.80
2018-04-14T09:31:45.586Z,59.50
2018-04-14T09:32:45.564Z,60.10
2018-04-14T09:33:45.569Z,58.50
2018-04-14T09:34:45.567Z,58.90
2018-04-14T09:35:45.570Z,60.40
2018-04-14T09:36:45.571Z,63.70
2018-04-14T09:37:45.575Z,63.00
2018-04-14T09:38:45.568Z,61.40
2018-04-14T09:39:45.572Z,62.60
2018-04-14T09:40:45.579Z,61.40
2018-04-14T09:41:45.573Z,61.20
2018-04-14T09:42:45.571Z,59.40
2018-04-14T09:43:45.573Z,61.90
2018-04-14T09:44:45.573Z,62.30
2018-04-14T09:45:45.578Z,63.10
2018-04-14T09:46:45.578Z,57.30
2018-04-14T09:47:45.588Z,57.50
2018-04-14T09:48:45.578Z,57.20
2018-04-14T09:49:45.579Z,59.20
2018-04-14T09:50:45.585Z,55.80
2018-04-14T09:51:45.582Z,55.70
2018-04-14T09:52:45.583Z,54.10
2018-04-14T09:53:45.582Z,51.40
2018-04-14T09:54:45.585Z,54.20
2018-04-14T09:55:45.583Z,53.10
2018-04-14T09:56:45.584Z,52.10
2018-04-14T09:57:45.583Z,54.40
2018-04-14T09:58:45.593Z,53.10
2018-04-14T09:59:45.593Z,49.40
2018-04-14T10:00:45.588Z,49.50
2018-04-14T10:01:45.591Z,48.70
2018-04-14T10:02:45.590Z,48.40
2018-04-14T10:03:45.595Z,46.40
2018-04-14T10:04:45.592Z,47.10
2018-04-14T10:05:45.595Z,46.80
2018-04-14T10:06:45.592Z,48.40
2018-04-14T10:07:45.594Z,46.20
2018-04-14T10:08:45.598Z,46.40
2018-04-14T10:09:45.597Z,46.00
2018-04-14T10:10:45.602Z,45.90
2018-04-14T10:11:45.600Z,44.60
2018-04-14T10:12:45.599Z,44.10
2018-04-14T10:13:45.600Z,42.40
2018-04-14T10:14:45.602Z,44.50
2018-04-14T10:15:45.609Z,45.50
2018-04-14T10:16:45.605Z,45.50
2018-04-14T10:17:45.610Z,44.80
2018-04-14T10:18:45.610Z,45.10
2018-04-14T10:19:45.608Z,42.70
2018-04-14T10:20:45.608Z,44.10
2018-04-14T10:21:45.609Z,43.50
2018-04-14T10:22:45.609Z,42.90
2018-04-14T10:23:45.615Z,45.90
2018-04-14T10:24:45.608Z,44.40
2018-04-14T10:25:45.611Z,41.10
2018-04-14T10:26:45.613Z,43.50
2018-04-14T10:27:45.615Z,45.90
2018-04-14T10:28:45.615Z,44.50
2018-04-14T10:29:45.621Z,44.60
2018-04-14T10:30:45.616Z,40.90
2018-04-14T10:31:45.617Z,42.70
2018-04-14T10:32:45.618Z,41.00
2018-04-14T10:33:45.617Z,43.90
2018-04-14T10:34:45.620Z,42.30
2018-04-14T10:35:45.619Z,42.10
2018-04-14T10:36:45.624Z,42.40
2018-04-14T10:37:45.670Z,44.10
2018-04-14T10:38:45.659Z,43.70
2018-04-14T10:39:45.622Z,42.00
2018-04-14T10:40:45.656Z,42.70
2018-04-14T10:41:45.625Z,43.60
2018-04-14T10:42:45.629Z,42.50
2018-04-14T10:43:45.628Z,43.00
2018-04-14T10:44:45.629Z,44.70
2018-04-14T10:45:45.632Z,43.30
2018-04-14T10:46:45.635Z,41.50
2018-04-14T10:47:45.636Z,41.50
2018-04-14T10:48:45.632Z,40.90
2018-04-14T10:49:45.635Z,43.70
2018-04-14T10:50:45.636Z,41.30
2018-04-14T10:51:45.636Z,39.50
2018-04-14T10:52:45.640Z,41.60
2018-04-14T10:53:45.646Z,42.20
2018-04-14T10:54:45.680Z,41.60
2018-04-14T10:55:45.677Z,42.10
2018-04-14T10:56:45.642Z,42.00
2018-04-14T10:57:45.647Z,42.70
2018-04-14T10:58:45.645Z,41.10
2018-04-14T10:59:45.642Z,41.70
2018-04-14T11:00:45.644Z,41.70
2018-04-14T11:01:45.647Z,40.90
2018-04-14T11:02:45.657Z,41.20
2018-04-14T11:03:45.653Z,39.80
2018-04-14T11:04:45.654Z,40.50
2018-04-14T11:05:45.651Z,40.40
2018-04-14T11:06:45.652Z,41.00
2018-04-14T11:07:45.657Z,40.90
2018-04-14T11:08:45.654Z,41.70
2018-04-14T11:09:45.653Z,39.90
2018-04-14T11:10:45.660Z,40.50
2018-04-14T11:11:45.659Z,39.70
2018-04-14T11:12:45.666Z,41.90
2018-04-14T11:13:45.664Z,41.60
2018-04-14T11:14:45.662Z,41.00
2018-04-14T11:15:45.672Z,43.90
2018-04-14T11:16:45.664Z,42.60
2018-04-14T11:17:45.670Z,43.10
2018-04-14T11:18:45.675Z,41.30
2018-04-14T11:19:45.668Z,42.00
2018-04-14T11:20:45.672Z,41.20
2018-04-14T11:21:45.670Z,41.30
2018-04-14T11:22:45.676Z,41.90
2018-04-14T11:23:45.676Z,43.10
2018-04-14T11:24:45.676Z,43.50
2018-04-14T11:25:45.675Z,42.10
2018-04-14T11:26:45.677Z,43.00
2018-04-14T11:27:45.680Z,41.90
2018-04-14T11:28:45.685Z,44.30
2018-04-14T11:29:45.686Z,41.30
2018-04-14T11:30:45.683Z,41.50
2018-04-14T11:31:45.688Z,42.00
2018-04-14T11:32:45.687Z,40.50
2018-04-14T11:33:45.687Z,42.10
2018-04-14T11:34:45.688Z,41.30
2018-04-14T11:35:45.691Z,40.70
2018-04-14T11:36:45.687Z,41.40
2018-04-14T11:37:45.692Z,40.50
2018-04-14T11:38:45.697Z,40.80
2018-04-14T11:39:45.694Z,39.20
2018-04-14T11:40:45.696Z,42.50
2018-04-14T11:41:45.696Z,41.10
2018-04-14T11:42:45.703Z,39.70
2018-04-14T11:43:45.703Z,39.50
2018-04-14T11:44:45.700Z,39.80
2018-04-14T11:45:45.703Z,40.30
2018-04-14T11:46:45.708Z,39.60
2018-04-14T11:47:45.707Z,39.10
2018-04-14T11:48:45.707Z,37.90
2018-04-14T11:49:45.714Z,39.70
2018-04-14T11:50:45.713Z,39.30
2018-04-14T11:51:45.714Z,39.00
2018-04-14T11:52:45.714Z,38.80
2018-04-14T11:53:45.722Z,39.00
2018-04-14T11:54:45.719Z,38.20
2018-04-14T11:55:45.727Z,38.10
2018-04-14T11:56:45.725Z,38.90
2018-04-14T11:57:45.723Z,38.10
2018-04-14T11:58:45.726Z,38.50
2018-04-14T11:59:45.729Z,38.00
2018-04-14T12:00:45.729Z,37.60
2018-04-14T12:01:45.736Z,38.20
2018-04-14T12:02:45.734Z,38.40
2018-04-14T12:03:45.799Z,37.10
2018-04-14T12:04:45.741Z,38.00
2018-04-14T12:05:45.741Z,38.20
2018-04-14T12:06:45.755Z,37.70
2018-04-14T12:07:45.748Z,37.70
2018-04-14T12:08:45.747Z,37.20
2018-04-14T12:09:45.749Z,37.50
2018-04-14T12:10:45.756Z,36.40
2018-04-14T12:11:45.753Z,37.70
2018-04-14T12:12:45.755Z,36.80
2018-04-14T12:13:45.760Z,36.20
2018-04-14T12:14:45.762Z,35.90
2018-04-14T12:15:45.763Z,36.60
2018-04-14T12:16:45.762Z,36.00
2018-04-14T12:17:45.766Z,34.90
2018-04-14T12:18:45.762Z,34.50
2018-04-14T12:19:45.768Z,34.10
2018-04-14T12:20:45.771Z,35.40
2018-04-14T12:21:45.772Z,33.70
2018-04-14T12:22:45.776Z,35.10
2018-04-14T12:23:45.779Z,35.20
2018-04-14T12:24:45.779Z,35.60
2018-04-14T12:25:45.783Z,35.20
2018-04-14T12:26:45.789Z,33.50
2018-04-14T12:27:45.785Z,33.10
2018-04-14T12:28:45.782Z,33.30
2018-04-14T12:29:45.787Z,33.70
2018-04-14T12:30:45.790Z,34.40
2018-04-14T12:31:45.790Z,33.30
2018-04-14T12:32:45.791Z,33.60
2018-04-14T12:33:45.794Z,33.80
2018-04-14T12:34:45.796Z,33.20
2018-04-14T12:35:45.796Z,33.60
2018-04-14T12:36:45.800Z,32.80
2018-04-14T12:37:45.800Z,31.00
2018-04-14T12:38:45.802Z,32.90
2018-04-14T12:39:45.803Z,32.50
2018-04-14T12:40:45.803Z,32.60
2018-04-14T12:41:45.807Z,31.20
2018-04-14T12:42:45.808Z,31.10
2018-04-14T12:43:45.811Z,30.60
2018-04-14T12:44:45.813Z,30.90
2018-04-14T12:45:45.808Z,31.80
2018-04-14T12:46:45.817Z,30.70
2018-04-14T12:47:45.817Z,32.70
2018-04-14T12:48:45.824Z,31.30
2018-04-14T12:49:45.821Z,30.90
2018-04-14T12:50:45.822Z,31.70
2018-04-14T12:51:45.826Z,32.00
2018-04-14T12:52:45.824Z,31.90